Shokyu Maru — JG5288 — position and weather

sailwx.info

Track history (hours):
 
Tides and Currents Weather Stations Pressure Air Temp Water Temp Dewpoint Dewpoint Depression Visibility Wind Speed Wind Dir Waves Ship Positions

Shokyu Maru

Last reported at 2015-Jul-06 21:33 UTC. Time now 2015-Jul-06 22:06 UTC.
Position N 35°36' E 139°55'.

Length 91 m; draft 4.8 m.

Type: Tanker. MMSI: 431000253.

Date/timePositionNaut miles runAvg speedWind from/ knotsBaromVisibWave heightAir tempDewpointWater temp
2015-Jul-06 21:33N 35°36' E 139°55'0 0.3
2015-Jul-06 20:20N 35°35' E 139°55'0 0.0
2015-Jul-06 19:32N 35°35' E 139°55'0 0.0
2015-Jul-06 18:29N 35°35' E 139°55'0 0.0
2015-Jul-06 17:29N 35°35' E 139°55'0 0.0
2015-Jul-06 16:23N 35°35' E 139°55'0 0.1
2015-Jul-06 15:29N 35°35' E 139°55'0 0.0
2015-Jul-06 14:32N 35°35' E 139°55'0 0.0
2015-Jul-06 13:32N 35°35' E 139°55'1 0.8
2015-Jul-06 12:33N 35°35' E 139°54'8 7.8
2015-Jul-06 11:33N 35°31' E 139°46'0 0.1
2015-Jul-06 10:30N 35°31' E 139°46'0 0.0
2015-Jul-06 09:33N 35°31' E 139°46'0 0.0
2015-Jul-06 08:33N 35°31' E 139°46'0 0.0
2015-Jul-06 07:33N 35°31' E 139°46'1 0.5
2015-Jul-06 06:33N 35°31' E 139°46'3 2.8
2015-Jul-06 05:33N 35°28' E 139°48'1 1.2
2015-Jul-06 04:33N 35°29' E 139°49'4 3.9
2015-Jul-06 03:33N 35°32' E 139°52'9 9.1
2015-Jul-06 02:33N 35°40' E 139°57'1 0.8
2015-Jul-06 01:22N 35°41' E 139°56'0 0.0
2015-Jul-06 00:28N 35°41' E 139°56'0 0.0
2015-Jul-05 23:22N 35°41' E 139°56'2 2.7
2015-Jul-05 22:33N 35°39' E 139°58'4 2.1
2015-Jul-05 20:30N 35°36' E 139°55'0 0.0
2015-Jul-05 19:33N 35°36' E 139°55'0 0.0
2015-Jul-05 18:33N 35°36' E 139°55'0 0.0
2015-Jul-05 17:33N 35°36' E 139°55'0 0.0
2015-Jul-05 16:33N 35°36' E 139°55'0 0.0
2015-Jul-05 15:33N 35°36' E 139°55'0 0.0
2015-Jul-05 14:33N 35°36' E 139°55'0 0.1
2015-Jul-05 13:33N 35°36' E 139°55'0 0.0
2015-Jul-05 12:33N 35°36' E 139°55'0 0.1
2015-Jul-05 11:33N 35°36' E 139°55'0 0.0
2015-Jul-05 10:33N 35°36' E 139°55'0 0.0
2015-Jul-05 09:27N 35°36' E 139°55'0 0.1
2015-Jul-05 08:30N 35°36' E 139°55'0 0.0
2015-Jul-05 07:30N 35°36' E 139°55'0 0.0
2015-Jul-05 06:33N 35°36' E 139°55'0 0.1
2015-Jul-05 05:33N 35°36' E 139°55'0 0.0
2015-Jul-05 04:30N 35°36' E 139°55'0 0.0
2015-Jul-05 03:24N 35°36' E 139°55'6 7.5
2015-Jul-05 02:33N 35°31' E 139°50'4 3.5
2015-Jul-05 01:31N 35°30' E 139°45'0 0.0
2015-Jul-05 00:31N 35°30' E 139°45'0 0.0
2015-Jul-04 23:31N 35°30' E 139°45'1 1.2
2015-Jul-04 22:33N 35°30' E 139°44'6 5.6
2015-Jul-04 21:33N 35°24' E 139°45'0 0.1
2015-Jul-04 20:33N 35°24' E 139°45'0 0.1
2015-Jul-04 19:33N 35°24' E 139°45'0 0.1
2015-Jul-04 18:33N 35°24' E 139°45'0 0.0
2015-Jul-04 17:33N 35°24' E 139°45'0 0.0
2015-Jul-04 16:33N 35°24' E 139°45'0 0.0
2015-Jul-04 15:33N 35°24' E 139°45'0 0.1
2015-Jul-04 14:33N 35°24' E 139°45'0 0.0
2015-Jul-04 13:33N 35°24' E 139°45'3 3.5
2015-Jul-04 12:33N 35°27' E 139°48'1010.1
2015-Jul-04 11:33N 35°35' E 139°56'6 5.9
2015-Jul-04 10:33N 35°41' E 139°56'0 0.0
2015-Jul-04 09:15N 35°41' E 139°56'0 0.0
2015-Jul-04 08:27N 35°41' E 139°56'0 0.0
2015-Jul-04 07:21N 35°41' E 139°56'0 0.0
2015-Jul-04 06:33N 35°41' E 139°56'5 4.8
2015-Jul-04 05:33N 35°36' E 139°56'1010.5
2015-Jul-04 04:34N 35°28' E 139°47'7 7.2
2015-Jul-04 03:33N 35°24' E 139°40'0 0.0
2015-Jul-04 02:30N 35°24' E 139°40'0 0.0
2015-Jul-04 01:33N 35°24' E 139°40'0 0.0
2015-Jul-04 00:33N 35°24' E 139°40'0 0.0
2015-Jul-03 23:33N 35°24' E 139°40'4 3.9
2015-Jul-03 22:34N 35°22' E 139°43'0 0.0
2015-Jul-03 21:31N 35°22' E 139°43'0 0.0
2015-Jul-03 20:31N 35°22' E 139°43'0 0.1
2015-Jul-03 19:31N 35°22' E 139°44'0 0.0
2015-Jul-03 18:31N 35°22' E 139°44'0 0.0
2015-Jul-03 17:31N 35°22' E 139°44'0 0.0
2015-Jul-03 16:31N 35°22' E 139°44'0 0.1
2015-Jul-03 15:31N 35°22' E 139°44'0 0.1
2015-Jul-03 14:31N 35°22' E 139°44'0 0.1
2015-Jul-03 13:31N 35°22' E 139°44'0 0.0
2015-Jul-03 12:31N 35°22' E 139°44'1 1.1
2015-Jul-03 11:34N 35°23' E 139°44'9 9.5
2015-Jul-03 10:34N 35°31' E 139°52'9 8.9
2015-Jul-03 09:34N 35°38' E 139°58'3 3.1
2015-Jul-03 08:33N 35°41' E 139°56'0 0.0
2015-Jul-03 07:33N 35°41' E 139°56'0 0.0
2015-Jul-03 06:15N 35°41' E 139°56'0 0.0
2015-Jul-03 05:33N 35°41' E 139°56'5 5.0
2015-Jul-03 04:33N 35°36' E 139°56'9 9.3
2015-Jul-03 03:33N 35°30' E 139°46'1 0.9
2015-Jul-03 02:32N 35°31' E 139°46'0 0.0
2015-Jul-03 01:32N 35°31' E 139°46'0 0.0
2015-Jul-03 00:29N 35°31' E 139°46'0 0.0
2015-Jul-02 23:32N 35°31' E 139°46'0 0.0
2015-Jul-02 22:32N 35°31' E 139°46'5 4.8
2015-Jul-02 21:33N 35°27' E 139°43'4 3.4
2015-Jul-02 20:32N 35°24' E 139°44'0 0.0
2015-Jul-02 19:33N 35°24' E 139°44'0 0.0
2015-Jul-02 18:33N 35°24' E 139°44'0 0.0
2015-Jul-02 17:33N 35°24' E 139°44'0 0.0
2015-Jul-02 16:33N 35°24' E 139°44'0 0.0
2015-Jul-02 15:33N 35°24' E 139°44'0 0.0
2015-Jul-02 14:33N 35°24' E 139°44'0 0.0
2015-Jul-02 13:33N 35°24' E 139°44'0 0.1
2015-Jul-02 12:33N 35°24' E 139°44'0 0.0
2015-Jul-02 11:33N 35°24' E 139°44'0 0.0
2015-Jul-02 10:33N 35°24' E 139°44'0 0.0
2015-Jul-02 09:33N 35°24' E 139°44'8 7.6
2015-Jul-02 08:33N 35°29' E 139°51'10 9.6
2015-Jul-02 07:33N 35°37' E 139°58'4 3.0
2015-Jul-02 06:22N 35°41' E 139°56'0 0.0
2015-Jul-02 05:22N 35°41' E 139°56'0 0.0
2015-Jul-02 04:10N 35°41' E 139°56'3 5.2
2015-Jul-02 03:33N 35°38' E 139°59'9 8.6
2015-Jul-02 02:27N 35°29' E 140°01'0 0.0
2015-Jul-02 01:27N 35°29' E 140°01'0 0.0
2015-Jul-02 00:33N 35°29' E 140°01'0 0.0
2015-Jul-01 23:33N 35°29' E 140°01'0 0.0
2015-Jul-01 22:33N 35°29' E 140°01'3 1.9
2015-Jul-01 21:13N 35°30' E 139°58'0 0.0
2015-Jul-01 20:28N 35°30' E 139°58'0 0.1
2015-Jul-01 19:31N 35°30' E 139°59'0 0.0
2015-Jul-01 18:25N 35°30' E 139°59'0 0.1
2015-Jul-01 17:31N 35°30' E 139°58'0 0.1
2015-Jul-01 16:31N 35°30' E 139°59'0 0.1
2015-Jul-01 15:31N 35°30' E 139°58'0 0.1
2015-Jul-01 14:31N 35°30' E 139°58'0 0.0
2015-Jul-01 13:31N 35°30' E 139°58'0 0.0
2015-Jul-01 12:25N 35°30' E 139°59'0 0.1
2015-Jul-01 11:32N 35°30' E 139°58'0 0.0
2015-Jul-01 10:32N 35°30' E 139°58'5 5.5
2015-Jul-01 09:33N 35°36' E 139°56'5 3.7
2015-Jul-01 08:14N 35°41' E 139°56'0 0.0
2015-Jul-01 07:29N 35°41' E 139°56'0 0.0
2015-Jul-01 06:20N 35°41' E 139°56'0 0.0
2015-Jul-01 05:29N 35°41' E 139°56'7 7.2
2015-Jul-01 04:33N 35°34' E 139°54'1111.2
2015-Jul-01 03:33N 35°26' E 139°44'4 3.7
2015-Jul-01 02:24N 35°24' E 139°40'0 0.0
2015-Jul-01 01:30N 35°24' E 139°40'0 0.0
2015-Jul-01 00:30N 35°24' E 139°40'0 0.0
2015-Jun-30 23:28N 35°24' E 139°40'2 2.5
2015-Jun-30 22:33N 35°25' E 139°42'4 4.1
2015-Jun-30 21:32N 35°29' E 139°39'0 0.0
2015-Jun-30 20:32N 35°29' E 139°39'0 0.0
2015-Jun-30 19:32N 35°29' E 139°39'0 0.0
2015-Jun-30 18:32N 35°29' E 139°39'0 0.0
2015-Jun-30 17:32N 35°29' E 139°39'0 0.0
2015-Jun-30 16:32N 35°29' E 139°39'0 0.0
2015-Jun-30 15:32N 35°29' E 139°39'0 0.0
2015-Jun-30 14:32N 35°29' E 139°39'0 0.0
2015-Jun-30 13:32N 35°29' E 139°39'0 0.0
2015-Jun-30 12:32N 35°29' E 139°39'0 0.0
2015-Jun-30 11:32N 35°29' E 139°39'0 0.0
2015-Jun-30 10:32N 35°29' E 139°39'0 0.0
2015-Jun-30 09:32N 35°29' E 139°39'0 0.0
2015-Jun-30 08:32N 35°29' E 139°39'0 0.0
2015-Jun-30 07:32N 35°29' E 139°39'0 0.0
2015-Jun-30 06:32N 35°29' E 139°39'0 0.0
2015-Jun-30 05:32N 35°29' E 139°39'0 0.0
2015-Jun-30 04:29N 35°29' E 139°39'7 7.5
2015-Jun-30 03:33N 35°28' E 139°48'10 9.9
2015-Jun-30 02:33N 35°35' E 139°56'5 4.7
2015-Jun-30 01:27N 35°41' E 139°56'0 0.0
2015-Jun-30 00:21N 35°41' E 139°56'0 0.0
2015-Jun-29 23:33N 35°41' E 139°56'0 0.0
2015-Jun-29 22:15N 35°41' E 139°56'2 3.4
2015-Jun-29 21:33N 35°39' E 139°58'5 3.8
2015-Jun-29 20:21N 35°35' E 139°55'0 0.0
2015-Jun-29 18:21N 35°35' E 139°55'0 0.0
2015-Jun-29 17:27N 35°35' E 139°55'0 0.0
2015-Jun-29 16:33N 35°35' E 139°55'0 0.0
2015-Jun-29 15:27N 35°35' E 139°55'0 0.0
2015-Jun-29 14:33N 35°35' E 139°55'0 0.0
2015-Jun-29 13:33N 35°35' E 139°55'0 0.0
2015-Jun-29 12:24N 35°35' E 139°55'0 0.0
2015-Jun-29 11:34N 35°35' E 139°55'8 7.7
2015-Jun-29 10:34N 35°29' E 139°49'9 9.0
2015-Jun-29 09:34N 35°24' E 139°40'0 0.4
2015-Jun-29 08:32N 35°24' E 139°40'0 0.0
2015-Jun-29 07:32N 35°24' E 139°40'0 0.0
2015-Jun-29 06:32N 35°24' E 139°40'0 0.0
2015-Jun-29 05:32N 35°24' E 139°40'3 3.3
2015-Jun-29 04:33N 35°25' E 139°43'1010.5
2015-Jun-29 03:33N 35°32' E 139°53'9 8.7
2015-Jun-29 02:33N 35°40' E 139°57'0 0.4
2015-Jun-29 01:19N 35°41' E 139°56'0 0.0
2015-Jun-29 00:07N 35°41' E 139°56'0 0.0
2015-Jun-28 23:31N 35°41' E 139°56'0 0.0
2015-Jun-28 22:31N 35°41' E 139°56'5 4.7
2015-Jun-28 21:33N 35°36' E 139°55'0 0.4
2015-Jun-28 20:33N 35°36' E 139°55'0 0.0
2015-Jun-28 19:33N 35°36' E 139°55'0 0.0
2015-Jun-28 18:33N 35°36' E 139°55'0 0.0
2015-Jun-28 17:33N 35°36' E 139°55'0 0.0
2015-Jun-28 16:33N 35°36' E 139°55'0 0.0
2015-Jun-28 15:33N 35°36' E 139°55'0 0.0
2015-Jun-28 14:33N 35°36' E 139°55'0 0.0
2015-Jun-28 13:33N 35°36' E 139°55'0 0.0
2015-Jun-28 12:33N 35°36' E 139°55'8 7.7
2015-Jun-28 11:33N 35°30' E 139°49'9 9.0
2015-Jun-28 10:33N 35°23' E 139°41'2 1.6
2015-Jun-28 09:33N 35°24' E 139°40'0 0.0
2015-Jun-28 08:33N 35°24' E 139°40'0 0.0
2015-Jun-28 07:33N 35°24' E 139°40'0 0.0
2015-Jun-28 06:33N 35°24' E 139°40'0 0.0
2015-Jun-28 05:33N 35°24' E 139°40'7 7.2
2015-Jun-28 04:33N 35°28' E 139°47'10 9.8
2015-Jun-28 03:33N 35°35' E 139°56'6 4.6
2015-Jun-28 02:20N 35°41' E 139°56'0 0.0
2015-Jun-28 01:26N 35°41' E 139°56'0 0.0
2015-Jun-28 00:32N 35°41' E 139°56'0 0.0
2015-Jun-27 23:14N 35°41' E 139°56'2 2.8
2015-Jun-27 22:33N 35°39' E 139°58'5 4.0
2015-Jun-27 21:25N 35°35' E 139°55'0 0.0
2015-Jun-27 20:31N 35°35' E 139°55'0 0.0
2015-Jun-27 19:31N 35°35' E 139°55'0 0.0
2015-Jun-27 18:31N 35°35' E 139°55'0 0.0
2015-Jun-27 17:31N 35°35' E 139°55'0 0.0
2015-Jun-27 16:28N 35°35' E 139°55'0 0.0
2015-Jun-27 15:31N 35°35' E 139°55'0 0.0
2015-Jun-27 14:25N 35°35' E 139°55'0 0.0
2015-Jun-27 13:29N 35°35' E 139°55'7 7.8
2015-Jun-27 12:33N 35°30' E 139°49'10 9.6
2015-Jun-27 11:33N 35°24' E 139°40'1 0.8
2015-Jun-27 10:31N 35°24' E 139°40'0 0.0
2015-Jun-27 09:28N 35°24' E 139°40'0 0.0
2015-Jun-27 08:31N 35°24' E 139°40'0 0.0
2015-Jun-27 07:31N 35°24' E 139°40'3 2.8
2015-Jun-27 06:33N 35°25' E 139°43'1010.0
2015-Jun-27 05:33N 35°31' E 139°52'9 9.0
2015-Jun-27 04:33N 35°39' E 139°58'2 1.9
2015-Jun-27 03:30N 35°41' E 139°56'0 0.0
2015-Jun-27 02:18N 35°41' E 139°56'0 0.0
2015-Jun-27 01:18N 35°41' E 139°56'0 0.0
2015-Jun-27 00:30N 35°41' E 139°56'5 4.8
2015-Jun-26 23:33N 35°36' E 139°55'  
Track history (hours):
 
Tides and Currents Weather Stations Pressure Air Temp Water Temp Dewpoint Dewpoint Depression Visibility Wind Speed Wind Dir Waves Ship Positions

Shokyu Maru

Last reported at 2015-Jul-06 21:33 UTC. Time now 2015-Jul-06 22:06 UTC.
Position N 35°36' E 139°55'.

Length 91 m; draft 4.8 m.

Type: Tanker. MMSI: 431000253.

Date/timePositionNaut miles runAvg speedWind from/ knotsBaromVisibWave heightAir tempDewpointWater temp
2015-Jul-06 21:33N 35°36' E 139°55'0 0.3
2015-Jul-06 20:20N 35°35' E 139°55'0 0.0
2015-Jul-06 19:32N 35°35' E 139°55'0 0.0
2015-Jul-06 18:29N 35°35' E 139°55'0 0.0
2015-Jul-06 17:29N 35°35' E 139°55'0 0.0
2015-Jul-06 16:23N 35°35' E 139°55'0 0.1
2015-Jul-06 15:29N 35°35' E 139°55'0 0.0
2015-Jul-06 14:32N 35°35' E 139°55'0 0.0
2015-Jul-06 13:32N 35°35' E 139°55'1 0.8
2015-Jul-06 12:33N 35°35' E 139°54'8 7.8
2015-Jul-06 11:33N 35°31' E 139°46'0 0.1
2015-Jul-06 10:30N 35°31' E 139°46'0 0.0
2015-Jul-06 09:33N 35°31' E 139°46'0 0.0
2015-Jul-06 08:33N 35°31' E 139°46'0 0.0
2015-Jul-06 07:33N 35°31' E 139°46'1 0.5
2015-Jul-06 06:33N 35°31' E 139°46'3 2.8
2015-Jul-06 05:33N 35°28' E 139°48'1 1.2
2015-Jul-06 04:33N 35°29' E 139°49'4 3.9
2015-Jul-06 03:33N 35°32' E 139°52'9 9.1
2015-Jul-06 02:33N 35°40' E 139°57'1 0.8
2015-Jul-06 01:22N 35°41' E 139°56'0 0.0
2015-Jul-06 00:28N 35°41' E 139°56'0 0.0
2015-Jul-05 23:22N 35°41' E 139°56'2 2.7
2015-Jul-05 22:33N 35°39' E 139°58'4 2.1
2015-Jul-05 20:30N 35°36' E 139°55'0 0.0
2015-Jul-05 19:33N 35°36' E 139°55'0 0.0
2015-Jul-05 18:33N 35°36' E 139°55'0 0.0
2015-Jul-05 17:33N 35°36' E 139°55'0 0.0
2015-Jul-05 16:33N 35°36' E 139°55'0 0.0
2015-Jul-05 15:33N 35°36' E 139°55'0 0.0
2015-Jul-05 14:33N 35°36' E 139°55'0 0.1
2015-Jul-05 13:33N 35°36' E 139°55'0 0.0
2015-Jul-05 12:33N 35°36' E 139°55'0 0.1
2015-Jul-05 11:33N 35°36' E 139°55'0 0.0
2015-Jul-05 10:33N 35°36' E 139°55'0 0.0
2015-Jul-05 09:27N 35°36' E 139°55'0 0.1
2015-Jul-05 08:30N 35°36' E 139°55'0 0.0
2015-Jul-05 07:30N 35°36' E 139°55'0 0.0
2015-Jul-05 06:33N 35°36' E 139°55'0 0.1
2015-Jul-05 05:33N 35°36' E 139°55'0 0.0
2015-Jul-05 04:30N 35°36' E 139°55'0 0.0
2015-Jul-05 03:24N 35°36' E 139°55'6 7.5
2015-Jul-05 02:33N 35°31' E 139°50'4 3.5
2015-Jul-05 01:31N 35°30' E 139°45'0 0.0
2015-Jul-05 00:31N 35°30' E 139°45'0 0.0
2015-Jul-04 23:31N 35°30' E 139°45'1 1.2
2015-Jul-04 22:33N 35°30' E 139°44'6 5.6
2015-Jul-04 21:33N 35°24' E 139°45'0 0.1
2015-Jul-04 20:33N 35°24' E 139°45'0 0.1
2015-Jul-04 19:33N 35°24' E 139°45'0 0.1
2015-Jul-04 18:33N 35°24' E 139°45'0 0.0
2015-Jul-04 17:33N 35°24' E 139°45'0 0.0
2015-Jul-04 16:33N 35°24' E 139°45'0 0.0
2015-Jul-04 15:33N 35°24' E 139°45'0 0.1
2015-Jul-04 14:33N 35°24' E 139°45'0 0.0
2015-Jul-04 13:33N 35°24' E 139°45'3 3.5
2015-Jul-04 12:33N 35°27' E 139°48'1010.1
2015-Jul-04 11:33N 35°35' E 139°56'6 5.9
2015-Jul-04 10:33N 35°41' E 139°56'0 0.0
2015-Jul-04 09:15N 35°41' E 139°56'0 0.0
2015-Jul-04 08:27N 35°41' E 139°56'0 0.0
2015-Jul-04 07:21N 35°41' E 139°56'0 0.0
2015-Jul-04 06:33N 35°41' E 139°56'5 4.8
2015-Jul-04 05:33N 35°36' E 139°56'1010.5
2015-Jul-04 04:34N 35°28' E 139°47'7 7.2
2015-Jul-04 03:33N 35°24' E 139°40'0 0.0
2015-Jul-04 02:30N 35°24' E 139°40'0 0.0
2015-Jul-04 01:33N 35°24' E 139°40'0 0.0
2015-Jul-04 00:33N 35°24' E 139°40'0 0.0
2015-Jul-03 23:33N 35°24' E 139°40'4 3.9
2015-Jul-03 22:34N 35°22' E 139°43'0 0.0
2015-Jul-03 21:31N 35°22' E 139°43'0 0.0
2015-Jul-03 20:31N 35°22' E 139°43'0 0.1
2015-Jul-03 19:31N 35°22' E 139°44'0 0.0
2015-Jul-03 18:31N 35°22' E 139°44'0 0.0
2015-Jul-03 17:31N 35°22' E 139°44'0 0.0
2015-Jul-03 16:31N 35°22' E 139°44'0 0.1
2015-Jul-03 15:31N 35°22' E 139°44'0 0.1
2015-Jul-03 14:31N 35°22' E 139°44'0 0.1
2015-Jul-03 13:31N 35°22' E 139°44'0 0.0
2015-Jul-03 12:31N 35°22' E 139°44'1 1.1
2015-Jul-03 11:34N 35°23' E 139°44'9 9.5
2015-Jul-03 10:34N 35°31' E 139°52'9 8.9
2015-Jul-03 09:34N 35°38' E 139°58'3 3.1
2015-Jul-03 08:33N 35°41' E 139°56'0 0.0
2015-Jul-03 07:33N 35°41' E 139°56'0 0.0
2015-Jul-03 06:15N 35°41' E 139°56'0 0.0
2015-Jul-03 05:33N 35°41' E 139°56'5 5.0
2015-Jul-03 04:33N 35°36' E 139°56'9 9.3
2015-Jul-03 03:33N 35°30' E 139°46'1 0.9
2015-Jul-03 02:32N 35°31' E 139°46'0 0.0
2015-Jul-03 01:32N 35°31' E 139°46'0 0.0
2015-Jul-03 00:29N 35°31' E 139°46'0 0.0
2015-Jul-02 23:32N 35°31' E 139°46'0 0.0
2015-Jul-02 22:32N 35°31' E 139°46'5 4.8
2015-Jul-02 21:33N 35°27' E 139°43'4 3.4
2015-Jul-02 20:32N 35°24' E 139°44'0 0.0
2015-Jul-02 19:33N 35°24' E 139°44'0 0.0
2015-Jul-02 18:33N 35°24' E 139°44'0 0.0
2015-Jul-02 17:33N 35°24' E 139°44'0 0.0
2015-Jul-02 16:33N 35°24' E 139°44'0 0.0
2015-Jul-02 15:33N 35°24' E 139°44'0 0.0
2015-Jul-02 14:33N 35°24' E 139°44'0 0.0
2015-Jul-02 13:33N 35°24' E 139°44'0 0.1
2015-Jul-02 12:33N 35°24' E 139°44'0 0.0
2015-Jul-02 11:33N 35°24' E 139°44'0 0.0
2015-Jul-02 10:33N 35°24' E 139°44'0 0.0
2015-Jul-02 09:33N 35°24' E 139°44'8 7.6
2015-Jul-02 08:33N 35°29' E 139°51'10 9.6
2015-Jul-02 07:33N 35°37' E 139°58'4 3.0
2015-Jul-02 06:22N 35°41' E 139°56'0 0.0
2015-Jul-02 05:22N 35°41' E 139°56'0 0.0
2015-Jul-02 04:10N 35°41' E 139°56'3 5.2
2015-Jul-02 03:33N 35°38' E 139°59'9 8.6
2015-Jul-02 02:27N 35°29' E 140°01'0 0.0
2015-Jul-02 01:27N 35°29' E 140°01'0 0.0
2015-Jul-02 00:33N 35°29' E 140°01'0 0.0
2015-Jul-01 23:33N 35°29' E 140°01'0 0.0
2015-Jul-01 22:33N 35°29' E 140°01'3 1.9
2015-Jul-01 21:13N 35°30' E 139°58'0 0.0
2015-Jul-01 20:28N 35°30' E 139°58'0 0.1
2015-Jul-01 19:31N 35°30' E 139°59'0 0.0
2015-Jul-01 18:25N 35°30' E 139°59'0 0.1
2015-Jul-01 17:31N 35°30' E 139°58'0 0.1
2015-Jul-01 16:31N 35°30' E 139°59'0 0.1
2015-Jul-01 15:31N 35°30' E 139°58'0 0.1
2015-Jul-01 14:31N 35°30' E 139°58'0 0.0
2015-Jul-01 13:31N 35°30' E 139°58'0 0.0
2015-Jul-01 12:25N 35°30' E 139°59'0 0.1
2015-Jul-01 11:32N 35°30' E 139°58'0 0.0
2015-Jul-01 10:32N 35°30' E 139°58'5 5.5
2015-Jul-01 09:33N 35°36' E 139°56'5 3.7
2015-Jul-01 08:14N 35°41' E 139°56'0 0.0
2015-Jul-01 07:29N 35°41' E 139°56'0 0.0
2015-Jul-01 06:20N 35°41' E 139°56'0 0.0
2015-Jul-01 05:29N 35°41' E 139°56'7 7.2
2015-Jul-01 04:33N 35°34' E 139°54'1111.2
2015-Jul-01 03:33N 35°26' E 139°44'4 3.7
2015-Jul-01 02:24N 35°24' E 139°40'0 0.0
2015-Jul-01 01:30N 35°24' E 139°40'0 0.0
2015-Jul-01 00:30N 35°24' E 139°40'0 0.0
2015-Jun-30 23:28N 35°24' E 139°40'2 2.5
2015-Jun-30 22:33N 35°25' E 139°42'4 4.1
2015-Jun-30 21:32N 35°29' E 139°39'0 0.0
2015-Jun-30 20:32N 35°29' E 139°39'0 0.0
2015-Jun-30 19:32N 35°29' E 139°39'0 0.0
2015-Jun-30 18:32N 35°29' E 139°39'0 0.0
2015-Jun-30 17:32N 35°29' E 139°39'0 0.0
2015-Jun-30 16:32N 35°29' E 139°39'0 0.0
2015-Jun-30 15:32N 35°29' E 139°39'0 0.0
2015-Jun-30 14:32N 35°29' E 139°39'0 0.0
2015-Jun-30 13:32N 35°29' E 139°39'0 0.0
2015-Jun-30 12:32N 35°29' E 139°39'0 0.0
2015-Jun-30 11:32N 35°29' E 139°39'0 0.0
2015-Jun-30 10:32N 35°29' E 139°39'0 0.0
2015-Jun-30 09:32N 35°29' E 139°39'0 0.0
2015-Jun-30 08:32N 35°29' E 139°39'0 0.0
2015-Jun-30 07:32N 35°29' E 139°39'0 0.0
2015-Jun-30 06:32N 35°29' E 139°39'0 0.0
2015-Jun-30 05:32N 35°29' E 139°39'0 0.0
2015-Jun-30 04:29N 35°29' E 139°39'7 7.5
2015-Jun-30 03:33N 35°28' E 139°48'10 9.9
2015-Jun-30 02:33N 35°35' E 139°56'5 4.7
2015-Jun-30 01:27N 35°41' E 139°56'0 0.0
2015-Jun-30 00:21N 35°41' E 139°56'0 0.0
2015-Jun-29 23:33N 35°41' E 139°56'0 0.0
2015-Jun-29 22:15N 35°41' E 139°56'2 3.4
2015-Jun-29 21:33N 35°39' E 139°58'5 3.8
2015-Jun-29 20:21N 35°35' E 139°55'0 0.0
2015-Jun-29 18:21N 35°35' E 139°55'0 0.0
2015-Jun-29 17:27N 35°35' E 139°55'0 0.0
2015-Jun-29 16:33N 35°35' E 139°55'0 0.0
2015-Jun-29 15:27N 35°35' E 139°55'0 0.0
2015-Jun-29 14:33N 35°35' E 139°55'0 0.0
2015-Jun-29 13:33N 35°35' E 139°55'0 0.0
2015-Jun-29 12:24N 35°35' E 139°55'0 0.0
2015-Jun-29 11:34N 35°35' E 139°55'8 7.7
2015-Jun-29 10:34N 35°29' E 139°49'9 9.0
2015-Jun-29 09:34N 35°24' E 139°40'0 0.4
2015-Jun-29 08:32N 35°24' E 139°40'0 0.0
2015-Jun-29 07:32N 35°24' E 139°40'0 0.0
2015-Jun-29 06:32N 35°24' E 139°40'0 0.0
2015-Jun-29 05:32N 35°24' E 139°40'3 3.3
2015-Jun-29 04:33N 35°25' E 139°43'1010.5
2015-Jun-29 03:33N 35°32' E 139°53'9 8.7
2015-Jun-29 02:33N 35°40' E 139°57'0 0.4
2015-Jun-29 01:19N 35°41' E 139°56'0 0.0
2015-Jun-29 00:07N 35°41' E 139°56'0 0.0
2015-Jun-28 23:31N 35°41' E 139°56'0 0.0
2015-Jun-28 22:31N 35°41' E 139°56'5 4.7
2015-Jun-28 21:33N 35°36' E 139°55'0 0.4
2015-Jun-28 20:33N 35°36' E 139°55'0 0.0
2015-Jun-28 19:33N 35°36' E 139°55'0 0.0
2015-Jun-28 18:33N 35°36' E 139°55'0 0.0
2015-Jun-28 17:33N 35°36' E 139°55'0 0.0
2015-Jun-28 16:33N 35°36' E 139°55'0 0.0
2015-Jun-28 15:33N 35°36' E 139°55'0 0.0
2015-Jun-28 14:33N 35°36' E 139°55'0 0.0
2015-Jun-28 13:33N 35°36' E 139°55'0 0.0
2015-Jun-28 12:33N 35°36' E 139°55'8 7.7
2015-Jun-28 11:33N 35°30' E 139°49'9 9.0
2015-Jun-28 10:33N 35°23' E 139°41'2 1.6
2015-Jun-28 09:33N 35°24' E 139°40'0 0.0
2015-Jun-28 08:33N 35°24' E 139°40'0 0.0
2015-Jun-28 07:33N 35°24' E 139°40'0 0.0
2015-Jun-28 06:33N 35°24' E 139°40'0 0.0
2015-Jun-28 05:33N 35°24' E 139°40'7 7.2
2015-Jun-28 04:33N 35°28' E 139°47'10 9.8
2015-Jun-28 03:33N 35°35' E 139°56'6 4.6
2015-Jun-28 02:20N 35°41' E 139°56'0 0.0
2015-Jun-28 01:26N 35°41' E 139°56'0 0.0
2015-Jun-28 00:32N 35°41' E 139°56'0 0.0
2015-Jun-27 23:14N 35°41' E 139°56'2 2.8
2015-Jun-27 22:33N 35°39' E 139°58'5 4.0
2015-Jun-27 21:25N 35°35' E 139°55'0 0.0
2015-Jun-27 20:31N 35°35' E 139°55'0 0.0
2015-Jun-27 19:31N 35°35' E 139°55'0 0.0
2015-Jun-27 18:31N 35°35' E 139°55'0 0.0
2015-Jun-27 17:31N 35°35' E 139°55'0 0.0
2015-Jun-27 16:28N 35°35' E 139°55'0 0.0
2015-Jun-27 15:31N 35°35' E 139°55'0 0.0
2015-Jun-27 14:25N 35°35' E 139°55'0 0.0
2015-Jun-27 13:29N 35°35' E 139°55'7 7.8
2015-Jun-27 12:33N 35°30' E 139°49'10 9.6
2015-Jun-27 11:33N 35°24' E 139°40'1 0.8
2015-Jun-27 10:31N 35°24' E 139°40'0 0.0
2015-Jun-27 09:28N 35°24' E 139°40'0 0.0
2015-Jun-27 08:31N 35°24' E 139°40'0 0.0
2015-Jun-27 07:31N 35°24' E 139°40'3 2.8
2015-Jun-27 06:33N 35°25' E 139°43'1010.0
2015-Jun-27 05:33N 35°31' E 139°52'9 9.0
2015-Jun-27 04:33N 35°39' E 139°58'2 1.9
2015-Jun-27 03:30N 35°41' E 139°56'0 0.0
2015-Jun-27 02:18N 35°41' E 139°56'0 0.0
2015-Jun-27 01:18N 35°41' E 139°56'0 0.0
2015-Jun-27 00:30N 35°41' E 139°56'5 4.8
2015-Jun-26 23:33N 35°36' E 139°55'  

Dump ship's entire track history